createdAt,value
2023-04-17T00:00:32.792Z,23.75
2023-04-17T00:01:32.811Z,23.76
2023-04-17T00:02:32.908Z,23.76
2023-04-17T00:03:32.952Z,23.74
2023-04-17T00:04:33.042Z,23.75
2023-04-17T00:05:32.874Z,23.74
2023-04-17T00:06:32.857Z,23.75
2023-04-17T00:07:32.913Z,23.75
2023-04-17T00:08:32.952Z,23.74
2023-04-17T00:09:32.960Z,23.74
2023-04-17T00:10:32.993Z,23.72
2023-04-17T00:11:32.984Z,23.74
2023-04-17T00:12:33.005Z,23.74
2023-04-17T00:13:33.043Z,23.78
2023-04-17T00:14:33.041Z,23.72
2023-04-17T00:15:33.101Z,23.75
2023-04-17T00:16:33.212Z,23.74
2023-04-17T00:17:33.193Z,23.74
2023-04-17T00:18:33.132Z,23.74
2023-04-17T00:19:33.167Z,23.72
2023-04-17T00:20:33.186Z,23.75
2023-04-17T00:21:33.165Z,23.75
2023-04-17T00:22:33.207Z,23.74
2023-04-17T00:23:33.167Z,23.72
2023-04-17T00:24:33.213Z,23.72
2023-04-17T00:25:33.199Z,23.72
2023-04-17T00:26:33.202Z,23.74
2023-04-17T00:27:33.209Z,23.72
2023-04-17T00:28:33.177Z,23.75
2023-04-17T00:29:33.216Z,23.72
2023-04-17T00:30:33.229Z,23.72
2023-04-17T00:31:33.240Z,23.72
2023-04-17T00:32:33.261Z,23.75
2023-04-17T00:33:33.297Z,23.72
2023-04-17T00:34:33.255Z,23.72
2023-04-17T00:35:33.242Z,23.71
2023-04-17T00:36:33.264Z,23.72
2023-04-17T00:37:33.265Z,23.72
2023-04-17T00:38:33.249Z,23.72
2023-04-17T00:39:33.283Z,23.71
2023-04-17T00:40:33.279Z,23.69
2023-04-17T00:41:33.294Z,23.74
2023-04-17T00:42:33.318Z,23.71
2023-04-17T00:43:33.319Z,23.71
2023-04-17T00:44:33.366Z,23.74
2023-04-17T00:45:33.448Z,23.69
2023-04-17T00:46:33.411Z,23.72
2023-04-17T00:47:33.523Z,23.72
2023-04-17T00:48:33.451Z,23.71
2023-04-17T00:49:33.498Z,23.72
2023-04-17T00:50:33.573Z,23.72
2023-04-17T00:51:33.489Z,23.72
2023-04-17T00:52:33.507Z,23.71
2023-04-17T00:53:33.553Z,23.72
2023-04-17T00:54:33.518Z,23.72
2023-04-17T00:55:33.495Z,23.72
2023-04-17T00:56:33.500Z,23.72
2023-04-17T00:57:33.557Z,23.71
2023-04-17T00:58:33.513Z,23.71
2023-04-17T00:59:33.577Z,23.71
2023-04-17T01:00:33.562Z,23.69
2023-04-17T01:01:33.582Z,23.71
2023-04-17T01:02:33.672Z,23.72
2023-04-17T01:03:33.747Z,23.71
2023-04-17T01:04:33.654Z,23.69
2023-04-17T01:05:33.621Z,23.68
2023-04-17T01:06:33.588Z,23.71
2023-04-17T01:07:33.613Z,23.69
2023-04-17T01:08:33.570Z,23.71
2023-04-17T01:09:33.590Z,23.71
2023-04-17T01:10:33.600Z,23.69
2023-04-17T01:11:33.651Z,23.71
2023-04-17T01:12:33.638Z,23.74
2023-04-17T01:13:33.646Z,23.69
2023-04-17T01:14:33.652Z,23.69
2023-04-17T01:15:33.675Z,23.71
2023-04-17T01:16:33.721Z,23.71
2023-04-17T01:17:33.719Z,23.69
2023-04-17T01:18:33.650Z,23.71
2023-04-17T01:19:33.660Z,23.68
2023-04-17T01:20:33.679Z,23.71
2023-04-17T01:21:33.658Z,23.69
2023-04-17T01:22:33.664Z,23.69
2023-04-17T01:23:33.668Z,23.71
2023-04-17T01:24:33.686Z,23.69
2023-04-17T01:25:33.692Z,23.68
2023-04-17T01:26:33.688Z,23.66
2023-04-17T01:27:33.678Z,23.71
2023-04-17T01:28:33.704Z,23.68
2023-04-17T01:29:33.693Z,23.69
2023-04-17T01:30:33.732Z,23.69
2023-04-17T01:31:33.721Z,23.68
2023-04-17T01:32:33.782Z,23.68
2023-04-17T01:33:33.749Z,23.68
2023-04-17T01:34:35.634Z,23.69
2023-04-17T01:35:33.722Z,23.68
2023-04-17T01:36:33.741Z,23.68
2023-04-17T01:37:33.711Z,23.68
2023-04-17T01:38:33.716Z,23.68
2023-04-17T01:39:33.703Z,23.69
2023-04-17T01:40:33.708Z,23.69
2023-04-17T01:41:33.718Z,23.69
2023-04-17T01:42:33.663Z,23.69
2023-04-17T01:43:33.687Z,23.66
2023-04-17T01:44:33.663Z,23.66
2023-04-17T01:45:33.680Z,23.66
2023-04-17T01:46:33.756Z,23.69
2023-04-17T01:47:33.644Z,23.66
2023-04-17T01:48:33.640Z,23.68
2023-04-17T01:49:33.612Z,23.68
2023-04-17T01:50:33.641Z,23.66
2023-04-17T01:51:33.612Z,23.66
2023-04-17T01:52:33.639Z,23.68
2023-04-17T01:53:33.616Z,23.66
2023-04-17T01:54:33.623Z,23.68
2023-04-17T01:55:33.579Z,23.66
2023-04-17T01:56:33.595Z,23.66
2023-04-17T01:57:33.589Z,23.68
2023-04-17T01:58:33.608Z,23.66
2023-04-17T01:59:33.591Z,23.68
2023-04-17T02:00:33.573Z,23.66
2023-04-17T02:01:33.654Z,23.66
2023-04-17T02:02:33.673Z,23.66
2023-04-17T02:03:33.707Z,23.66
2023-04-17T02:04:33.572Z,23.64
2023-04-17T02:05:33.545Z,23.66
2023-04-17T02:06:33.527Z,23.66
2023-04-17T02:07:33.539Z,23.66
2023-04-17T02:08:33.588Z,23.68
2023-04-17T02:09:33.515Z,23.68
2023-04-17T02:10:33.523Z,23.68
2023-04-17T02:11:33.504Z,23.65
2023-04-17T02:12:33.491Z,23.66
2023-04-17T02:13:33.494Z,23.65
2023-04-17T02:14:33.510Z,23.64
2023-04-17T02:15:33.613Z,23.64
2023-04-17T02:16:33.569Z,23.68
2023-04-17T02:17:33.500Z,23.66
2023-04-17T02:18:33.472Z,23.68
2023-04-17T02:19:33.461Z,23.68
2023-04-17T02:20:33.456Z,23.64
2023-04-17T02:21:33.443Z,23.65
2023-04-17T02:22:33.456Z,23.65
2023-04-17T02:23:33.402Z,23.65
2023-04-17T02:24:33.428Z,23.65
2023-04-17T02:25:33.409Z,23.66
2023-04-17T02:26:33.421Z,23.66
2023-04-17T02:27:33.386Z,23.66
2023-04-17T02:28:33.395Z,23.65
2023-04-17T02:29:33.394Z,23.65
2023-04-17T02:30:33.406Z,23.65
2023-04-17T02:31:33.433Z,23.65
2023-04-17T02:32:33.494Z,23.65
2023-04-17T02:33:33.359Z,23.64
2023-04-17T02:34:33.320Z,23.65
2023-04-17T02:35:33.347Z,23.66
2023-04-17T02:36:33.344Z,23.66
2023-04-17T02:37:33.345Z,23.65
2023-04-17T02:38:33.309Z,23.64
2023-04-17T02:39:33.281Z,23.65
2023-04-17T02:40:33.381Z,23.64
2023-04-17T02:41:33.317Z,23.64
2023-04-17T02:42:33.300Z,23.65
2023-04-17T02:43:33.292Z,23.65
2023-04-17T02:44:33.261Z,23.64
2023-04-17T02:45:33.285Z,23.61
2023-04-17T02:46:33.288Z,23.65
2023-04-17T02:47:33.348Z,23.62
2023-04-17T02:48:33.262Z,23.64
2023-04-17T02:49:33.240Z,23.62
2023-04-17T02:50:33.249Z,23.64
2023-04-17T02:51:33.217Z,23.64
2023-04-17T02:52:33.275Z,23.62
2023-04-17T02:53:33.216Z,23.62
2023-04-17T02:54:33.195Z,23.62
2023-04-17T02:55:33.177Z,23.66
2023-04-17T02:56:33.176Z,23.64
2023-04-17T02:57:33.192Z,23.62
2023-04-17T02:58:33.180Z,23.64
2023-04-17T02:59:33.151Z,23.62
2023-04-17T03:00:33.212Z,23.64
2023-04-17T03:01:33.227Z,23.64
2023-04-17T03:02:33.251Z,23.65
2023-04-17T03:03:33.266Z,23.64
2023-04-17T03:04:33.134Z,23.61
2023-04-17T03:05:33.153Z,23.62
2023-04-17T03:06:33.143Z,23.65
2023-04-17T03:07:33.142Z,23.64
2023-04-17T03:08:33.201Z,23.62
2023-04-17T03:09:33.117Z,23.61
2023-04-17T03:10:33.109Z,23.65
2023-04-17T03:11:33.103Z,23.61
2023-04-17T03:12:33.187Z,23.62
2023-04-17T03:13:33.112Z,23.61
2023-04-17T03:14:33.088Z,23.64
2023-04-17T03:15:33.079Z,23.60
2023-04-17T03:16:33.166Z,23.62
2023-04-17T03:17:33.083Z,23.61
2023-04-17T03:18:33.041Z,23.61
2023-04-17T03:19:33.068Z,23.62
2023-04-17T03:20:33.060Z,23.62
2023-04-17T03:21:33.043Z,23.62
2023-04-17T03:22:33.049Z,23.61
2023-04-17T03:23:33.026Z,23.64
2023-04-17T03:24:33.019Z,23.64
2023-04-17T03:25:33.022Z,23.60
2023-04-17T03:26:32.999Z,23.61
2023-04-17T03:27:33.007Z,23.61
2023-04-17T03:28:33.007Z,23.61
2023-04-17T03:29:33.007Z,23.62
2023-04-17T03:30:33.002Z,23.62
2023-04-17T03:31:32.993Z,23.61
2023-04-17T03:32:32.964Z,23.62
2023-04-17T03:33:32.937Z,23.61
2023-04-17T03:34:32.962Z,23.61
2023-04-17T03:35:32.965Z,23.64
2023-04-17T03:36:32.954Z,23.60
2023-04-17T03:37:32.932Z,23.61
2023-04-17T03:38:32.945Z,23.60
2023-04-17T03:39:32.921Z,23.61
2023-04-17T03:40:33.712Z,23.60
2023-04-17T03:41:32.930Z,23.60
2023-04-17T03:42:32.902Z,23.61
2023-04-17T03:43:32.888Z,23.58
2023-04-17T03:44:32.920Z,23.60
2023-04-17T03:45:32.925Z,23.60
2023-04-17T03:46:32.857Z,23.60
2023-04-17T03:47:32.973Z,23.60
2023-04-17T03:48:32.871Z,23.61
2023-04-17T03:49:32.887Z,23.60
2023-04-17T03:50:32.920Z,23.61
2023-04-17T03:51:32.864Z,23.61
2023-04-17T03:52:32.857Z,23.60
2023-04-17T03:53:32.845Z,23.57
2023-04-17T03:54:32.834Z,23.60
2023-04-17T03:55:32.809Z,23.60
2023-04-17T03:56:32.836Z,23.58
2023-04-17T03:57:32.835Z,23.61
2023-04-17T03:58:32.803Z,23.61
2023-04-17T03:59:32.780Z,23.61
2023-04-17T04:00:32.767Z,23.60
2023-04-17T04:01:32.865Z,23.58
2023-04-17T04:02:32.818Z,23.58
2023-04-17T04:03:33.025Z,23.60
2023-04-17T04:04:32.894Z,23.61
2023-04-17T04:05:32.770Z,23.57
2023-04-17T04:06:32.816Z,23.57
2023-04-17T04:07:32.729Z,23.58
2023-04-17T04:08:32.704Z,23.58
2023-04-17T04:09:32.771Z,23.60
2023-04-17T04:10:32.742Z,23.60
2023-04-17T04:11:32.722Z,23.57
2023-04-17T04:12:32.707Z,23.58
2023-04-17T04:13:32.708Z,23.60
2023-04-17T04:14:32.688Z,23.60
2023-04-17T04:15:32.683Z,23.57
2023-04-17T04:16:32.710Z,23.60
2023-04-17T04:17:32.724Z,23.60
2023-04-17T04:18:32.659Z,23.61
2023-04-17T04:19:32.619Z,23.58
2023-04-17T04:20:32.634Z,23.58
2023-04-17T04:21:32.646Z,23.58
2023-04-17T04:22:32.635Z,23.60
2023-04-17T04:23:32.647Z,23.60
2023-04-17T04:24:32.601Z,23.58
2023-04-17T04:25:32.602Z,23.58
2023-04-17T04:26:32.607Z,23.58
2023-04-17T04:27:32.621Z,23.57
2023-04-17T04:28:32.678Z,23.60
2023-04-17T04:29:32.680Z,23.57
2023-04-17T04:30:32.693Z,23.58
2023-04-17T04:31:32.716Z,23.57
2023-04-17T04:32:32.744Z,23.58
2023-04-17T04:33:32.774Z,23.57
2023-04-17T04:34:32.805Z,23.57
2023-04-17T04:35:32.858Z,23.57
2023-04-17T04:36:32.849Z,23.58
2023-04-17T04:37:32.847Z,23.57
2023-04-17T04:38:33.130Z,23.60
2023-04-17T04:39:32.864Z,23.57
2023-04-17T04:40:32.907Z,23.58
2023-04-17T04:41:32.961Z,23.57
2023-04-17T04:42:32.985Z,23.60
2023-04-17T04:43:32.962Z,23.57
2023-04-17T04:44:32.992Z,23.57
2023-04-17T04:45:32.973Z,23.57
2023-04-17T04:46:33.039Z,23.55
2023-04-17T04:47:33.039Z,23.58
2023-04-17T04:48:33.030Z,23.57
2023-04-17T04:49:32.982Z,23.55
2023-04-17T04:50:33.023Z,23.57
2023-04-17T04:51:33.034Z,23.57
2023-04-17T04:52:33.025Z,23.57
2023-04-17T04:53:33.024Z,23.55
2023-04-17T04:54:32.996Z,23.57
2023-04-17T04:55:32.985Z,23.57
2023-04-17T04:56:33.179Z,23.57
2023-04-17T04:57:33.020Z,23.57
2023-04-17T04:58:32.996Z,23.57
2023-04-17T04:59:33.014Z,23.57
2023-04-17T05:00:33.013Z,23.57
2023-04-17T05:01:33.118Z,23.58
2023-04-17T05:02:33.160Z,23.55
2023-04-17T05:03:33.176Z,23.55
2023-04-17T05:04:33.109Z,23.57
2023-04-17T05:05:33.034Z,23.55
2023-04-17T05:06:33.059Z,23.57
2023-04-17T05:07:33.037Z,23.57
2023-04-17T05:08:33.062Z,23.55
2023-04-17T05:09:33.022Z,23.57
2023-04-17T05:10:33.081Z,23.55
2023-04-17T05:11:33.077Z,23.55
2023-04-17T05:12:33.050Z,23.57
2023-04-17T05:13:33.081Z,23.57
2023-04-17T05:14:33.078Z,23.55
2023-04-17T05:15:33.109Z,23.58
2023-04-17T05:16:33.145Z,23.54
2023-04-17T05:17:33.109Z,23.57
2023-04-17T05:18:33.125Z,23.55
2023-04-17T05:19:33.124Z,23.55
2023-04-17T05:20:33.096Z,23.55
2023-04-17T05:21:33.101Z,23.57
2023-04-17T05:22:33.088Z,23.55
2023-04-17T05:23:33.102Z,23.55
2023-04-17T05:24:33.136Z,23.55
2023-04-17T05:25:33.096Z,23.57
2023-04-17T05:26:33.082Z,23.57
2023-04-17T05:27:33.099Z,23.57
2023-04-17T05:28:33.110Z,23.58
2023-04-17T05:29:33.097Z,23.57
2023-04-17T05:30:33.086Z,23.55
2023-04-17T05:31:33.162Z,23.55
2023-04-17T05:32:33.103Z,23.55
2023-04-17T05:33:33.091Z,23.57
2023-04-17T05:34:33.103Z,23.57
2023-04-17T05:35:33.142Z,23.55
2023-04-17T05:36:33.119Z,23.54
2023-04-17T05:37:33.112Z,23.57
2023-04-17T05:38:33.136Z,23.55
2023-04-17T05:39:33.103Z,23.57
2023-04-17T05:40:33.142Z,23.58
2023-04-17T05:41:33.247Z,23.55
2023-04-17T05:42:33.114Z,23.58
2023-04-17T05:43:33.092Z,23.58
2023-04-17T05:44:33.140Z,23.54
2023-04-17T05:45:33.132Z,23.54
2023-04-17T05:46:33.216Z,23.55
2023-04-17T05:47:33.167Z,23.58
2023-04-17T05:48:33.130Z,23.55
2023-04-17T05:49:33.125Z,23.58
2023-04-17T05:50:33.125Z,23.54
2023-04-17T05:51:33.249Z,23.55
2023-04-17T05:52:33.156Z,23.55
2023-04-17T05:53:33.185Z,23.57
2023-04-17T05:54:33.178Z,23.57
2023-04-17T05:55:33.167Z,23.57
2023-04-17T05:56:33.245Z,23.57
2023-04-17T05:57:33.181Z,23.58
2023-04-17T05:58:33.174Z,23.58
2023-04-17T05:59:33.149Z,23.64
2023-04-17T06:00:33.152Z,23.65
2023-04-17T06:01:33.168Z,23.71
2023-04-17T06:02:33.349Z,23.76
2023-04-17T06:03:33.466Z,23.84
2023-04-17T06:04:33.669Z,23.88
2023-04-17T06:05:33.395Z,23.95
2023-04-17T06:06:33.379Z,23.99
2023-04-17T06:07:33.439Z,24.05
2023-04-17T06:08:33.476Z,24.06
2023-04-17T06:09:33.591Z,24.12
2023-04-17T06:10:33.609Z,24.15
2023-04-17T06:11:33.625Z,24.22
2023-04-17T06:12:33.649Z,24.26
2023-04-17T06:13:33.690Z,24.27
2023-04-17T06:14:33.721Z,24.32
2023-04-17T06:15:33.722Z,24.39
2023-04-17T06:16:33.863Z,24.42
2023-04-17T06:17:33.907Z,24.44
2023-04-17T06:18:33.807Z,24.47
2023-04-17T06:19:33.848Z,24.49
2023-04-17T06:20:33.878Z,24.52
2023-04-17T06:21:33.868Z,24.53
2023-04-17T06:22:33.872Z,24.56
2023-04-17T06:23:33.858Z,24.59
2023-04-17T06:24:33.866Z,24.60
2023-04-17T06:25:33.881Z,24.62
2023-04-17T06:26:34.228Z,24.63
2023-04-17T06:27:36.382Z,24.67
2023-04-17T06:28:33.901Z,24.66
2023-04-17T06:29:33.876Z,24.68
2023-04-17T06:30:33.976Z,24.70
2023-04-17T06:31:33.911Z,24.68
2023-04-17T06:32:33.882Z,24.70
2023-04-17T06:33:33.896Z,24.73
2023-04-17T06:34:33.840Z,24.71
2023-04-17T06:35:33.829Z,24.73
2023-04-17T06:36:33.818Z,24.77
2023-04-17T06:37:33.830Z,24.75
2023-04-17T06:38:33.797Z,24.74
2023-04-17T06:39:33.799Z,24.75
2023-04-17T06:40:33.810Z,24.77
2023-04-17T06:41:33.767Z,24.75
2023-04-17T06:42:33.805Z,24.77
2023-04-17T06:43:33.755Z,24.78
2023-04-17T06:44:33.770Z,24.81
2023-04-17T06:45:33.783Z,24.78
2023-04-17T06:46:34.271Z,24.81
2023-04-17T06:47:33.808Z,24.80
2023-04-17T06:48:33.721Z,24.83
2023-04-17T06:49:33.744Z,24.85
2023-04-17T06:50:33.699Z,24.87
2023-04-17T06:51:33.693Z,24.91
2023-04-17T06:52:33.741Z,24.93
2023-04-17T06:53:33.699Z,24.94
2023-04-17T06:54:33.672Z,24.95
2023-04-17T06:55:33.715Z,24.95
2023-04-17T06:56:33.695Z,24.97
2023-04-17T06:57:33.662Z,24.98
2023-04-17T06:58:33.649Z,24.99
2023-04-17T06:59:33.660Z,24.98
2023-04-17T07:00:33.652Z,24.97
2023-04-17T07:01:33.656Z,24.95
2023-04-17T07:02:33.722Z,24.97
2023-04-17T07:03:33.983Z,24.95
2023-04-17T07:04:33.669Z,24.94
2023-04-17T07:05:33.609Z,24.93
2023-04-17T07:06:33.606Z,24.94
2023-04-17T07:07:33.600Z,24.94
2023-04-17T07:08:33.609Z,24.93
2023-04-17T07:09:33.579Z,24.93
2023-04-17T07:10:33.566Z,24.94
2023-04-17T07:11:33.579Z,24.93
2023-04-17T07:12:33.678Z,24.94
2023-04-17T07:13:33.564Z,24.95
2023-04-17T07:14:33.608Z,24.97
2023-04-17T07:15:33.616Z,24.98
2023-04-17T07:16:33.578Z,24.98
2023-04-17T07:17:33.574Z,24.97
2023-04-17T07:18:33.521Z,25.01
2023-04-17T07:19:33.549Z,25.01
2023-04-17T07:20:33.505Z,25.03
2023-04-17T07:21:33.499Z,25.04
2023-04-17T07:22:33.498Z,25.03
2023-04-17T07:23:33.471Z,25.03
2023-04-17T07:24:33.477Z,25.05
2023-04-17T07:25:33.509Z,25.07
2023-04-17T07:26:33.475Z,25.07
2023-04-17T07:27:33.463Z,25.08
2023-04-17T07:28:33.452Z,25.10
2023-04-17T07:29:33.437Z,25.11
2023-04-17T07:30:33.442Z,25.13
2023-04-17T07:31:33.447Z,25.14
2023-04-17T07:32:33.439Z,25.13
2023-04-17T07:33:33.429Z,25.17
2023-04-17T07:34:33.407Z,25.17
2023-04-17T07:35:33.408Z,25.17
2023-04-17T07:36:33.388Z,25.15
2023-04-17T07:37:33.413Z,25.18
2023-04-17T07:38:33.401Z,25.19
2023-04-17T07:39:33.358Z,25.21
2023-04-17T07:40:33.375Z,25.17
2023-04-17T07:41:33.370Z,25.19
2023-04-17T07:42:33.765Z,25.17
2023-04-17T07:43:33.366Z,25.18
2023-04-17T07:44:33.585Z,25.14
2023-04-17T07:45:33.432Z,25.15
2023-04-17T07:46:33.511Z,25.14
2023-04-17T07:47:33.834Z,25.11
2023-04-17T07:48:33.596Z,25.14
2023-04-17T07:49:33.630Z,25.15
2023-04-17T07:50:33.667Z,25.17
2023-04-17T07:51:33.707Z,25.19
2023-04-17T07:52:33.834Z,25.21
2023-04-17T07:53:33.834Z,25.19
2023-04-17T07:54:33.881Z,25.21
2023-04-17T07:55:33.881Z,25.21
2023-04-17T07:56:33.920Z,25.24
2023-04-17T07:57:33.964Z,25.22
2023-04-17T07:58:33.988Z,25.28
2023-04-17T07:59:34.024Z,25.26
2023-04-17T08:00:34.041Z,25.28
2023-04-17T08:01:34.085Z,25.31
2023-04-17T08:02:34.174Z,25.34
2023-04-17T08:03:34.460Z,25.34
2023-04-17T08:04:34.443Z,25.34
2023-04-17T08:05:34.177Z,25.35
2023-04-17T08:06:34.183Z,25.35
2023-04-17T08:07:34.243Z,25.32
2023-04-17T08:08:34.251Z,25.32
2023-04-17T08:09:34.274Z,25.35
2023-04-17T08:10:34.319Z,25.34
2023-04-17T08:11:40.156Z,25.32
2023-04-17T08:12:35.778Z,25.31
2023-04-17T08:13:34.377Z,25.34
2023-04-17T08:14:34.331Z,25.34
2023-04-17T08:15:34.293Z,25.34
2023-04-17T08:16:34.528Z,25.36
2023-04-17T08:17:34.488Z,25.38
2023-04-17T08:18:34.313Z,25.36
2023-04-17T08:19:34.278Z,25.38
2023-04-17T08:20:34.268Z,25.41
2023-04-17T08:21:34.288Z,25.38
2023-04-17T08:22:34.263Z,25.41
2023-04-17T08:23:34.284Z,25.41
2023-04-17T08:24:34.257Z,25.48
2023-04-17T08:25:34.240Z,25.44
2023-04-17T08:26:34.212Z,25.45
2023-04-17T08:27:34.235Z,25.42
2023-04-17T08:28:34.250Z,25.46
2023-04-17T08:29:41.526Z,25.46
2023-04-17T08:30:34.205Z,25.45
2023-04-17T08:31:34.229Z,25.44
2023-04-17T08:32:34.369Z,25.42
2023-04-17T08:33:34.177Z,25.44
2023-04-17T08:34:34.186Z,25.46
2023-04-17T08:35:34.182Z,25.45
2023-04-17T08:36:34.139Z,25.42
2023-04-17T08:37:34.293Z,25.49
2023-04-17T08:38:34.142Z,25.49
2023-04-17T08:39:34.142Z,25.48
2023-04-17T08:40:34.150Z,25.49
2023-04-17T08:41:34.155Z,25.46
2023-04-17T08:42:34.121Z,25.46
2023-04-17T08:43:34.082Z,25.45
2023-04-17T08:44:34.096Z,25.45
2023-04-17T08:45:34.090Z,25.45
2023-04-17T08:46:34.108Z,25.46
2023-04-17T08:47:34.407Z,25.45
2023-04-17T08:48:34.124Z,25.45
2023-04-17T08:49:34.082Z,25.45
2023-04-17T08:50:34.088Z,25.42
2023-04-17T08:51:34.064Z,25.45
2023-04-17T08:52:34.329Z,25.42
2023-04-17T08:53:34.080Z,25.39
2023-04-17T08:54:34.044Z,25.38
2023-04-17T08:55:34.042Z,25.36
2023-04-17T08:56:34.039Z,25.31
2023-04-17T08:57:34.008Z,25.29
2023-04-17T08:58:34.036Z,25.25
2023-04-17T08:59:34.035Z,25.22
2023-04-17T09:00:34.012Z,25.15
2023-04-17T09:01:34.106Z,25.17
2023-04-17T09:02:34.040Z,25.15
2023-04-17T09:03:34.170Z,25.11
2023-04-17T09:04:34.124Z,25.08
2023-04-17T09:05:33.985Z,25.05
2023-04-17T09:06:33.972Z,25.05
2023-04-17T09:07:34.345Z,24.99
2023-04-17T09:08:33.949Z,24.99
2023-04-17T09:09:33.973Z,24.98
2023-04-17T09:10:33.923Z,24.95
2023-04-17T09:11:33.910Z,24.93
2023-04-17T09:12:33.926Z,24.91
2023-04-17T09:13:33.939Z,24.91
2023-04-17T09:14:33.924Z,24.93
2023-04-17T09:15:34.002Z,24.95
2023-04-17T09:16:33.926Z,25.01
2023-04-17T09:17:33.891Z,25.01
2023-04-17T09:18:33.942Z,25.03
2023-04-17T09:19:35.197Z,25.04
2023-04-17T09:20:34.060Z,25.08
2023-04-17T09:21:34.061Z,25.07
2023-04-17T09:22:34.117Z,25.10
2023-04-17T09:23:34.227Z,25.11
2023-04-17T09:24:34.188Z,25.13
2023-04-17T09:25:34.204Z,25.10
2023-04-17T09:26:34.229Z,25.08
2023-04-17T09:27:34.382Z,25.11
2023-04-17T09:28:34.277Z,25.14
2023-04-17T09:29:34.280Z,25.14
2023-04-17T09:30:34.520Z,25.13
2023-04-17T09:31:34.467Z,25.14
2023-04-17T09:32:34.397Z,25.14
2023-04-17T09:33:34.290Z,25.14
2023-04-17T09:34:34.337Z,25.13
2023-04-17T09:35:35.836Z,25.11
2023-04-17T09:36:34.413Z,25.14
2023-04-17T09:37:34.295Z,25.14
2023-04-17T09:38:34.301Z,25.19
2023-04-17T09:39:34.287Z,25.14
2023-04-17T09:40:34.308Z,25.17
2023-04-17T09:41:34.307Z,25.18
2023-04-17T09:42:34.373Z,25.21
2023-04-17T09:43:34.253Z,25.18
2023-04-17T09:44:34.303Z,25.21
2023-04-17T09:45:34.243Z,25.22
2023-04-17T09:46:34.370Z,25.24
2023-04-17T09:47:34.391Z,25.28
2023-04-17T09:48:34.213Z,25.29
2023-04-17T09:49:34.248Z,25.28
2023-04-17T09:50:35.882Z,25.29
2023-04-17T09:51:34.217Z,25.31
2023-04-17T09:52:34.236Z,25.32
2023-04-17T09:53:34.181Z,25.34
2023-04-17T09:54:34.205Z,25.32
2023-04-17T09:55:34.179Z,25.36
2023-04-17T09:56:34.199Z,25.34
2023-04-17T09:57:34.169Z,25.34
2023-04-17T09:58:34.160Z,25.34
2023-04-17T09:59:34.161Z,25.35
2023-04-17T10:00:34.187Z,25.31
2023-04-17T10:01:34.146Z,25.34
2023-04-17T10:02:34.220Z,25.34
2023-04-17T10:03:37.128Z,25.32
2023-04-17T10:04:34.141Z,25.34
2023-04-17T10:05:34.113Z,25.35
2023-04-17T10:06:34.202Z,25.31
2023-04-17T10:07:34.145Z,25.29
2023-04-17T10:08:34.268Z,25.34
2023-04-17T10:09:34.090Z,25.32
2023-04-17T10:10:34.366Z,25.31
2023-04-17T10:11:34.126Z,25.32
2023-04-17T10:12:34.896Z,25.31
2023-04-17T10:13:34.062Z,25.31
2023-04-17T10:14:34.094Z,25.31
2023-04-17T10:15:34.112Z,25.29
2023-04-17T10:16:34.125Z,25.29
2023-04-17T10:17:34.506Z,25.26
2023-04-17T10:18:34.045Z,25.29
2023-04-17T10:19:34.041Z,25.25
2023-04-17T10:20:33.997Z,25.26
2023-04-17T10:21:34.000Z,25.29
2023-04-17T10:22:34.014Z,25.26
2023-04-17T10:23:33.970Z,25.25
2023-04-17T10:24:33.989Z,25.24
2023-04-17T10:25:33.985Z,25.24
2023-04-17T10:26:33.953Z,25.24
2023-04-17T10:27:33.996Z,25.24
2023-04-17T10:28:33.963Z,25.21
2023-04-17T10:29:33.976Z,25.21
2023-04-17T10:30:33.977Z,25.22
2023-04-17T10:31:34.026Z,25.21
2023-04-17T10:32:34.004Z,25.21
2023-04-17T10:33:33.924Z,25.21
2023-04-17T10:34:33.917Z,25.19
2023-04-17T10:35:33.944Z,25.17
2023-04-17T10:36:33.945Z,25.17
2023-04-17T10:37:34.357Z,25.13
2023-04-17T10:38:33.980Z,25.11
2023-04-17T10:39:34.094Z,25.13
2023-04-17T10:40:34.127Z,25.13
2023-04-17T10:41:34.158Z,25.11
2023-04-17T10:42:34.216Z,25.10
2023-04-17T10:43:34.283Z,25.10
2023-04-17T10:44:34.351Z,25.08
2023-04-17T10:45:34.371Z,25.07
2023-04-17T10:46:34.487Z,25.07
2023-04-17T10:47:34.507Z,25.08
2023-04-17T10:48:34.534Z,25.08
2023-04-17T10:49:34.552Z,25.05
2023-04-17T10:50:35.358Z,25.08
2023-04-17T10:51:34.639Z,25.08
2023-04-17T10:52:34.861Z,25.05
2023-04-17T10:53:34.761Z,25.08
2023-04-17T10:54:34.784Z,25.07
2023-04-17T10:55:34.811Z,25.07
2023-04-17T10:56:34.858Z,25.03
2023-04-17T10:57:34.919Z,25.03
2023-04-17T10:58:34.952Z,25.03
2023-04-17T10:59:35.865Z,25.03
2023-04-17T11:00:35.045Z,25.04
2023-04-17T11:01:35.121Z,25.07
2023-04-17T11:02:35.179Z,25.05
2023-04-17T11:03:35.169Z,25.07
2023-04-17T11:04:35.296Z,25.10
2023-04-17T11:05:35.207Z,25.05
2023-04-17T11:06:35.258Z,25.04
2023-04-17T11:07:35.321Z,25.05
2023-04-17T11:08:35.326Z,25.05
2023-04-17T11:09:35.353Z,25.05
2023-04-17T11:10:35.366Z,25.04
2023-04-17T11:12:35.395Z,25.05
2023-04-17T11:13:35.353Z,25.05
2023-04-17T11:14:35.363Z,25.07
2023-04-17T11:15:35.360Z,25.05
2023-04-17T11:16:35.355Z,25.03
2023-04-17T11:17:35.400Z,25.03
2023-04-17T11:18:35.366Z,25.03
2023-04-17T11:19:35.341Z,25.04
2023-04-17T11:20:35.319Z,25.03
2023-04-17T11:21:35.316Z,25.05
2023-04-17T11:22:35.308Z,25.07
2023-04-17T11:23:35.309Z,25.05
2023-04-17T11:24:35.304Z,25.07
2023-04-17T11:25:35.310Z,25.07
2023-04-17T11:26:35.283Z,25.05
2023-04-17T11:27:35.286Z,25.04
2023-04-17T11:28:35.313Z,25.05
2023-04-17T11:29:35.253Z,25.05
2023-04-17T11:30:35.375Z,25.07
2023-04-17T11:31:35.388Z,25.08
2023-04-17T11:32:35.409Z,25.10
2023-04-17T11:33:35.890Z,25.14
2023-04-17T11:34:35.440Z,25.13
2023-04-17T11:35:35.473Z,25.14
2023-04-17T11:36:35.538Z,25.14
2023-04-17T11:37:35.553Z,25.14
2023-04-17T11:38:35.880Z,25.17
2023-04-17T11:39:35.647Z,25.18
2023-04-17T11:40:35.711Z,25.19
2023-04-17T11:41:35.725Z,25.21
2023-04-17T11:42:35.768Z,25.21
2023-04-17T11:43:35.783Z,25.22
2023-04-17T11:44:35.819Z,25.22
2023-04-17T11:45:35.874Z,25.24
2023-04-17T11:46:35.991Z,25.21
2023-04-17T11:47:36.019Z,25.24
2023-04-17T11:48:36.389Z,25.22
2023-04-17T11:49:36.080Z,25.25
2023-04-17T11:50:36.206Z,25.25
2023-04-17T11:51:36.135Z,25.24
2023-04-17T11:52:36.193Z,25.25
2023-04-17T11:53:36.279Z,25.24
2023-04-17T11:54:36.284Z,25.25
2023-04-17T11:55:36.362Z,25.28
2023-04-17T11:56:36.408Z,25.26
2023-04-17T11:57:36.441Z,25.28
2023-04-17T11:58:36.485Z,25.26
2023-04-17T11:59:36.516Z,25.28
2023-04-17T12:00:36.612Z,25.29
2023-04-17T12:01:36.595Z,25.26
2023-04-17T12:02:36.697Z,25.26
2023-04-17T12:03:37.174Z,25.26
2023-04-17T12:04:37.111Z,25.26
2023-04-17T12:05:36.806Z,25.29
2023-04-17T12:06:36.835Z,25.28
2023-04-17T12:07:36.888Z,25.29
2023-04-17T12:08:36.895Z,25.31
2023-04-17T12:09:36.944Z,25.29
2023-04-17T12:10:36.991Z,25.29
2023-04-17T12:11:37.040Z,25.29
2023-04-17T12:12:37.071Z,25.19
2023-04-17T12:13:37.092Z,25.26
2023-04-17T12:14:37.157Z,25.24
2023-04-17T12:15:37.166Z,25.28
2023-04-17T12:16:37.357Z,25.25
2023-04-17T12:17:37.297Z,25.26
2023-04-17T12:18:37.317Z,25.29
2023-04-17T12:19:37.324Z,25.28
2023-04-17T12:20:37.388Z,25.28
2023-04-17T12:21:37.451Z,25.28
2023-04-17T12:22:37.465Z,25.28
2023-04-17T12:23:37.512Z,25.25
2023-04-17T12:24:37.525Z,25.28
2023-04-17T12:25:37.583Z,25.31
2023-04-17T12:26:37.659Z,25.29
2023-04-17T12:27:37.839Z,25.29
2023-04-17T12:28:37.731Z,25.29
2023-04-17T12:30:38.778Z,25.28
2023-04-17T12:31:37.831Z,25.28
2023-04-17T12:32:37.836Z,25.28
2023-04-17T12:33:37.737Z,25.32
2023-04-17T12:34:37.745Z,25.29
2023-04-17T12:35:37.742Z,25.29
2023-04-17T12:36:37.739Z,25.26
2023-04-17T12:37:37.733Z,25.26
2023-04-17T12:38:37.717Z,25.24
2023-04-17T12:39:37.730Z,25.25
2023-04-17T12:40:37.785Z,25.25
2023-04-17T12:41:37.805Z,25.24
2023-04-17T12:42:48.359Z,25.25
2023-04-17T12:43:38.858Z,25.24
2023-04-17T12:44:37.942Z,25.24
2023-04-17T12:45:38.337Z,25.22
2023-04-17T12:46:37.866Z,25.21
2023-04-17T12:47:37.844Z,25.22
2023-04-17T12:48:37.850Z,25.24
2023-04-17T12:49:37.819Z,25.19
2023-04-17T12:50:37.844Z,25.21
2023-04-17T12:51:38.077Z,25.22
2023-04-17T12:52:37.866Z,25.18
2023-04-17T12:53:37.926Z,25.21
2023-04-17T12:54:37.967Z,25.19